createdAt,value
2023-01-29T00:00:40.018Z,-4.58
2023-01-29T00:03:08.295Z,-4.59
2023-01-29T00:05:36.878Z,-4.57
2023-01-29T00:08:05.607Z,-4.49
2023-01-29T00:10:36.286Z,-4.49
2023-01-29T00:13:05.815Z,-4.59
2023-01-29T00:15:34.748Z,-4.70
2023-01-29T00:18:02.943Z,-4.82
2023-01-29T00:20:34.885Z,-4.82
2023-01-29T00:23:03.231Z,-4.78
2023-01-29T00:25:31.995Z,-4.82
2023-01-29T00:28:00.182Z,-4.93
2023-01-29T00:30:28.841Z,-5.06
2023-01-29T00:32:57.810Z,-5.18
2023-01-29T00:35:26.011Z,-5.22
2023-01-29T00:37:57.901Z,-5.22
2023-01-29T00:40:27.309Z,-5.25
2023-01-29T00:43:14.349Z,-5.34
2023-01-29T00:45:42.524Z,-5.41
2023-01-29T00:48:10.644Z,-5.48
2023-01-29T00:50:39.104Z,-5.46
2023-01-29T00:53:07.541Z,-5.40
2023-01-29T00:55:36.298Z,-5.43
2023-01-29T00:58:04.652Z,-5.49
2023-01-29T01:00:33.051Z,-5.55
2023-01-29T01:03:07.612Z,-5.59
2023-01-29T01:05:37.204Z,-5.55
2023-01-29T01:08:25.606Z,-5.50
2023-01-29T01:11:05.171Z,-5.52
2023-01-29T01:13:34.346Z,-5.57
2023-01-29T01:16:02.897Z,-5.60
2023-01-29T01:18:31.130Z,-5.58
2023-01-29T01:20:59.817Z,-5.50
2023-01-29T01:23:28.243Z,-5.48
2023-01-29T01:25:56.461Z,-5.53
2023-01-29T01:28:24.954Z,-5.59
2023-01-29T01:30:53.322Z,-5.65
2023-01-29T01:33:21.455Z,-5.63
2023-01-29T01:35:49.806Z,-5.58
2023-01-29T01:38:19.906Z,-5.59
2023-01-29T01:40:48.808Z,-5.66
2023-01-29T01:43:16.990Z,-5.72
2023-01-29T01:45:46.946Z,-5.73
2023-01-29T01:48:23.965Z,-5.66
2023-01-29T01:51:03.833Z,-5.65
2023-01-29T01:53:42.389Z,-5.68
2023-01-29T01:56:16.016Z,-5.73
2023-01-29T01:58:47.418Z,-5.70
2023-01-29T02:01:15.596Z,-5.63
2023-01-29T02:04:12.806Z,-5.63
2023-01-29T02:06:59.958Z,-5.68
2023-01-29T02:10:00.525Z,-5.72
2023-01-29T02:12:31.422Z,-5.65
2023-01-29T02:15:00.066Z,-5.58
2023-01-29T02:17:28.336Z,-5.59
2023-01-29T02:20:02.144Z,-5.63
2023-01-29T02:22:55.405Z,-5.67
2023-01-29T02:25:26.737Z,-5.63
2023-01-29T02:28:21.933Z,-5.56
2023-01-29T02:30:59.167Z,-5.57
2023-01-29T02:33:36.497Z,-5.64
2023-01-29T02:36:10.634Z,-5.70
2023-01-29T02:38:38.727Z,-5.68
2023-01-29T02:41:22.824Z,-5.62
2023-01-29T02:44:02.783Z,-5.63
2023-01-29T02:46:47.611Z,-5.69
2023-01-29T02:49:32.100Z,-5.77
2023-01-29T02:52:04.887Z,-5.77
2023-01-29T02:54:44.797Z,-5.74
2023-01-29T02:57:43.635Z,-5.78
2023-01-29T03:00:26.096Z,-5.85
2023-01-29T03:03:23.369Z,-5.89
2023-01-29T03:05:59.374Z,-5.85
2023-01-29T03:08:43.400Z,-5.81
2023-01-29T03:11:15.459Z,-5.84
2023-01-29T03:13:51.382Z,-5.90
2023-01-29T03:16:53.395Z,-5.96
2023-01-29T03:19:36.493Z,-5.92
2023-01-29T03:22:08.682Z,-5.86
2023-01-29T03:25:08.871Z,-5.88
2023-01-29T03:28:00.758Z,-5.93
2023-01-29T03:30:53.651Z,-6.00
2023-01-29T03:33:35.893Z,-6.03
2023-01-29T03:36:10.800Z,-5.96
2023-01-29T03:38:40.204Z,-5.86
2023-01-29T03:41:29.883Z,-5.84
2023-01-29T03:43:58.076Z,-5.86
2023-01-29T03:46:29.913Z,-5.91
2023-01-29T07:54:44.449Z,-3.41
2023-01-29T07:57:13.783Z,-2.74
2023-01-29T07:59:41.917Z,-2.66
2023-01-29T08:02:10.259Z,-2.53
2023-01-29T08:04:41.533Z,-2.44
2023-01-29T08:07:10.473Z,-2.43
2023-01-29T08:09:39.397Z,-2.49
2023-01-29T08:12:07.524Z,-2.54
2023-01-29T08:14:35.645Z,-2.48
2023-01-29T08:17:03.971Z,-2.41
2023-01-29T08:19:32.189Z,-2.42
2023-01-29T08:22:00.433Z,-2.46
2023-01-29T08:24:41.484Z,-2.49
2023-01-29T08:27:17.209Z,-2.42
2023-01-29T08:29:45.411Z,-2.32
2023-01-29T08:32:33.456Z,-2.29
2023-01-29T08:35:01.610Z,-2.34
2023-01-29T08:37:30.130Z,-2.38
2023-01-29T08:39:58.442Z,-2.31
2023-01-29T08:42:26.644Z,-2.23
2023-01-29T08:44:54.779Z,-2.22
2023-01-29T08:47:22.897Z,-2.24
2023-01-29T08:49:51.054Z,-2.28
2023-01-29T08:52:19.184Z,-2.22
2023-01-29T08:54:48.131Z,-2.11
2023-01-29T08:57:16.608Z,-2.09
2023-01-29T08:59:44.705Z,-2.14
2023-01-29T09:02:14.963Z,-2.20
2023-01-29T09:04:44.284Z,-2.18
2023-01-29T09:07:12.556Z,-2.12
2023-01-29T09:09:40.744Z,-2.13
2023-01-29T09:12:09.253Z,-2.18
2023-01-29T09:14:37.611Z,-2.21
2023-01-29T09:17:08.116Z,-2.15
2023-01-29T09:19:36.997Z,-2.10
2023-01-29T09:22:05.812Z,-2.11
2023-01-29T09:24:35.329Z,-2.16
2023-01-29T09:27:03.409Z,-2.20
2023-01-29T09:29:35.779Z,-2.16
2023-01-29T09:32:04.817Z,-2.06
2023-01-29T09:34:33.460Z,-2.04
2023-01-29T09:37:01.796Z,-2.07
2023-01-29T09:39:30.410Z,-2.04
2023-01-29T09:42:10.707Z,-1.93
2023-01-29T09:44:41.703Z,-1.86
2023-01-29T09:47:13.458Z,-1.88
2023-01-29T09:50:02.603Z,-1.90
2023-01-29T09:53:10.554Z,-1.88
2023-01-29T09:55:45.353Z,-1.80
2023-01-29T09:58:26.127Z,-1.75
2023-01-29T10:01:06.247Z,-1.76
2023-01-29T10:04:12.252Z,-1.79
2023-01-29T10:06:50.028Z,-1.79
2023-01-29T10:09:55.456Z,-1.73
2023-01-29T10:12:23.593Z,-1.72
2023-01-29T10:15:17.834Z,-1.75
2023-01-29T10:18:12.805Z,-1.74
2023-01-29T10:20:53.988Z,-1.62
2023-01-29T10:23:23.601Z,-1.51
2023-01-29T10:25:51.818Z,-1.48
2023-01-29T10:28:46.562Z,-1.46
2023-01-29T10:31:33.020Z,-1.44
2023-01-29T10:34:12.342Z,-1.34
2023-01-29T10:36:42.866Z,-1.28
2023-01-29T10:39:21.520Z,-1.33
2023-01-29T10:42:23.973Z,-1.39
2023-01-29T10:45:32.732Z,-1.35
2023-01-29T10:48:30.002Z,-1.33
2023-01-29T10:51:14.839Z,-1.41
2023-01-29T10:54:24.221Z,-1.46
2023-01-29T10:57:10.117Z,-1.40
2023-01-29T10:59:47.260Z,-1.33
2023-01-29T11:02:18.214Z,-1.35
2023-01-29T11:04:46.602Z,-1.38
2023-01-29T11:07:16.690Z,-1.33
2023-01-29T11:10:04.177Z,-1.25
2023-01-29T11:12:33.868Z,-1.26
2023-01-29T11:15:26.317Z,-1.28
2023-01-29T11:18:23.862Z,-1.29
2023-01-29T11:21:03.993Z,-1.21
2023-01-29T11:23:33.708Z,-1.19
2023-01-29T11:26:11.087Z,-1.22
2023-01-29T11:28:40.253Z,-1.22
2023-01-29T11:31:35.466Z,-1.16
2023-01-29T11:34:18.986Z,-1.02
2023-01-29T11:36:47.188Z,-0.98
2023-01-29T11:39:17.911Z,-0.99
2023-01-29T11:42:05.266Z,-0.99
2023-01-29T11:44:42.151Z,-0.92
2023-01-29T11:47:21.536Z,-0.85
2023-01-29T16:00:57.883Z,-0.64
2023-01-29T16:03:27.593Z,-0.53
2023-01-29T16:05:54.395Z,-0.52
2023-01-29T16:08:25.393Z,-0.54
2023-01-29T16:10:57.681Z,-0.59
2023-01-29T16:13:27.357Z,-0.63
2023-01-29T16:15:59.239Z,-0.61
2023-01-29T16:18:32.378Z,-0.59
2023-01-29T16:21:24.606Z,-0.66
2023-01-29T16:23:57.805Z,-0.76
2023-01-29T16:26:27.454Z,-0.81
2023-01-29T16:28:54.294Z,-0.77
2023-01-29T16:31:30.974Z,-0.74
2023-01-29T16:33:58.489Z,-0.79
2023-01-29T16:36:30.139Z,-0.86
2023-01-29T16:38:59.905Z,-0.91
2023-01-29T16:41:35.351Z,-0.90
2023-01-29T16:44:14.992Z,-0.88
2023-01-29T16:46:46.506Z,-0.93
2023-01-29T16:49:28.723Z,-1.00
2023-01-29T16:51:56.381Z,-1.06
2023-01-29T16:54:27.272Z,-1.07
2023-01-29T16:56:59.349Z,-1.00
2023-01-29T16:59:33.016Z,-0.99
2023-01-29T17:01:59.885Z,-1.04
2023-01-29T17:04:26.597Z,-1.08
2023-01-29T17:06:55.412Z,-1.03
2023-01-29T17:09:30.845Z,-0.98
2023-01-29T17:12:07.808Z,-1.01
2023-01-29T17:14:41.487Z,-1.05
2023-01-29T17:17:14.717Z,-1.09
2023-01-29T17:19:41.418Z,-1.03
2023-01-29T17:22:14.194Z,-0.95
2023-01-29T17:24:41.900Z,-0.94
2023-01-29T17:27:21.436Z,-0.99
2023-01-29T17:29:48.447Z,-1.07
2023-01-29T17:32:18.305Z,-1.14
2023-01-29T17:34:46.438Z,-1.20
2023-01-29T17:37:14.848Z,-1.17
2023-01-29T17:39:44.392Z,-1.10
2023-01-29T17:42:13.167Z,-1.09
2023-01-29T17:44:42.056Z,-1.13
2023-01-29T17:47:16.803Z,-1.17
2023-01-29T17:49:44.294Z,-1.22
2023-01-29T17:52:11.286Z,-1.26
2023-01-29T17:54:38.295Z,-1.22
2023-01-29T17:57:05.057Z,-1.19
2023-01-29T17:59:32.602Z,-1.22
2023-01-29T18:01:59.523Z,-1.27
2023-01-29T18:04:26.669Z,-1.31
2023-01-29T18:06:53.896Z,-1.32
2023-01-29T18:09:21.123Z,-1.25
2023-01-29T18:11:48.862Z,-1.22
2023-01-29T18:14:15.762Z,-1.24
2023-01-29T18:16:43.398Z,-1.29
2023-01-29T18:19:26.773Z,-1.33
2023-01-29T18:21:54.034Z,-1.38
2023-01-29T18:24:20.757Z,-1.40
2023-01-29T18:26:48.338Z,-1.34
2023-01-29T18:29:15.679Z,-1.24
2023-01-29T18:31:42.521Z,-1.22
2023-01-29T18:34:09.418Z,-1.25
2023-01-29T18:36:36.787Z,-1.29
2023-01-29T18:39:03.600Z,-1.32
2023-01-29T18:41:30.647Z,-1.35
2023-01-29T18:43:57.467Z,-1.38
2023-01-29T18:46:24.337Z,-1.40
2023-01-29T18:48:53.669Z,-1.35
2023-01-29T18:51:20.639Z,-1.31
2023-01-29T18:53:50.883Z,-1.35
2023-01-29T18:56:20.632Z,-1.41
2023-01-29T18:58:52.719Z,-1.46
2023-01-29T19:01:23.259Z,-1.49
2023-01-29T19:03:50.129Z,-1.52
2023-01-29T19:06:17.040Z,-1.54
2023-01-29T19:08:44.227Z,-1.48
2023-01-29T19:11:11.981Z,-1.38
2023-01-29T19:13:40.345Z,-1.33
2023-01-29T19:16:11.498Z,-1.35
2023-01-29T19:18:38.568Z,-1.39
2023-01-29T19:21:10.917Z,-1.43
2023-01-29T19:23:37.726Z,-1.47
2023-01-29T19:26:05.364Z,-1.50
2023-01-29T19:28:32.401Z,-1.46
2023-01-29T19:30:59.656Z,-1.43
2023-01-29T19:33:27.242Z,-1.46
2023-01-29T19:35:57.977Z,-1.50
2023-01-29T19:38:24.977Z,-1.54
2023-01-29T19:40:51.964Z,-1.60
2023-01-29T19:43:18.751Z,-1.55
2023-01-29T19:45:50.733Z,-1.53
2023-01-29T23:59:42.285Z,-2.23
